sensor_id;sensor_type;location;lat;lon;timestamp;pressure;altitude;pressure_sealevel;temperature;humidity
46614;BME280;32338;50.430;6.806;2023-04-28T00:00:48;66331.72;;;8.38;100.00
46614;BME280;32338;50.430;6.806;2023-04-28T00:03:15;66324.41;;;8.32;100.00
46614;BME280;32338;50.430;6.806;2023-04-28T00:05:42;66317.47;;;8.23;100.00
46614;BME280;32338;50.430;6.806;2023-04-28T00:08:08;66311.84;;;8.18;100.00
46614;BME280;32338;50.430;6.806;2023-04-28T00:10:35;66311.13;;;8.22;100.00
46614;BME280;32338;50.430;6.806;2023-04-28T00:13:03;66314.81;;;8.16;100.00
46614;BME280;32338;50.430;6.806;2023-04-28T00:15:29;66308.84;;;8.13;100.00
46614;BME280;32338;50.430;6.806;2023-04-28T00:17:56;66308.09;;;8.17;100.00
46614;BME280;32338;50.430;6.806;2023-04-28T00:20:23;66311.84;;;8.18;100.00
46614;BME280;32338;50.430;6.806;2023-04-28T00:22:49;66300.22;;;8.09;100.00
46614;BME280;32338;50.430;6.806;2023-04-28T00:25:16;66306.44;;;8.15;100.00
46614;BME280;32338;50.430;6.806;2023-04-28T00:27:42;66298.91;;;8.06;100.00
46614;BME280;32338;50.430;6.806;2023-04-28T00:30:11;66292.72;;;8.00;100.00
46614;BME280;32338;50.430;6.806;2023-04-28T00:32:38;66289.34;;;7.97;100.00
46614;BME280;32338;50.430;6.806;2023-04-28T00:35:05;66284.31;;;7.92;100.00
46614;BME280;32338;50.430;6.806;2023-04-28T00:37:35;66283.19;;;7.91;100.00
46614;BME280;32338;50.430;6.806;2023-04-28T00:40:02;66285.41;;;7.93;100.00
46614;BME280;32338;50.430;6.806;2023-04-28T00:42:29;66289.16;;;7.94;100.00
46614;BME280;32338;50.430;6.806;2023-04-28T00:44:55;66281.69;;;7.92;100.00
46614;BME280;32338;50.430;6.806;2023-04-28T00:47:23;66288.78;;;7.97;100.00
46614;BME280;32338;50.430;6.806;2023-04-28T00:49:50;66288.78;;;7.97;100.00
46614;BME280;32338;50.430;6.806;2023-04-28T00:52:17;66286.00;;;7.94;100.00
46614;BME280;32338;50.430;6.806;2023-04-28T00:54:43;66284.84;;;7.93;100.00
46614;BME280;32338;50.430;6.806;2023-04-28T00:57:12;66281.28;;;7.87;100.00
46614;BME280;32338;50.430;6.806;2023-04-28T00:59:39;66277.75;;;7.89;100.00
46614;BME280;32338;50.430;6.806;2023-04-28T01:02:05;66278.31;;;7.89;100.00
46614;BME280;32338;50.430;6.806;2023-04-28T01:04:34;66280.38;;;7.89;100.00
46614;BME280;32338;50.430;6.806;2023-04-28T01:07:01;66278.13;;;7.87;100.00
46614;BME280;32338;50.430;6.806;2023-04-28T01:09:28;66273.03;;;7.82;100.00
46614;BME280;32338;50.430;6.806;2023-04-28T01:11:54;66271.38;;;7.81;100.00
46614;BME280;32338;50.430;6.806;2023-04-28T01:14:22;66263.50;;;7.73;100.00
46614;BME280;32338;50.430;6.806;2023-04-28T01:16:49;66268.34;;;7.75;100.00
46614;BME280;32338;50.430;6.806;2023-04-28T01:19:19;66258.66;;;7.71;100.00
46614;BME280;32338;50.430;6.806;2023-04-28T01:21:48;66249.09;;;7.62;100.00
46614;BME280;32338;50.430;6.806;2023-04-28T01:24:16;66254.50;;;7.65;100.00
46614;BME280;32338;50.430;6.806;2023-04-28T01:26:43;66249.28;;;7.65;100.00
46614;BME280;32338;50.430;6.806;2023-04-28T01:29:10;66258.44;;;7.69;100.00
46614;BME280;32338;50.430;6.806;2023-04-28T01:31:37;66263.50;;;7.73;100.00
46614;BME280;32338;50.430;6.806;2023-04-28T01:34:04;66259.19;;;7.72;100.00
46614;BME280;32338;50.430;6.806;2023-04-28T01:36:30;66263.69;;;7.76;100.00
46614;BME280;32338;50.430;6.806;2023-04-28T01:38:57;66275.09;;;7.82;100.00
46614;BME280;32338;50.430;6.806;2023-04-28T01:41:25;66286.34;;;7.92;100.00
46614;BME280;32338;50.430;6.806;2023-04-28T01:43:52;66283.72;;;7.92;100.00
46614;BME280;32338;50.430;6.806;2023-04-28T01:46:18;66283.38;;;7.94;100.00
46614;BME280;32338;50.430;6.806;2023-04-28T01:48:45;66290.47;;;7.98;100.00
46614;BME280;32338;50.430;6.806;2023-04-28T01:51:11;66291.97;;;7.97;100.00
46614;BME280;32338;50.430;6.806;2023-04-28T01:53:38;66291.25;;;8.01;100.00
46614;BME280;32338;50.430;6.806;2023-04-28T01:56:04;66291.25;;;8.01;100.00
46614;BME280;32338;50.430;6.806;2023-04-28T01:58:32;66293.88;;;8.01;100.00
46614;BME280;32338;50.430;6.806;2023-04-28T02:00:59;66298.16;;;8.03;100.00
46614;BME280;32338;50.430;6.806;2023-04-28T02:03:26;66297.59;;;8.02;100.00
46614;BME280;32338;50.430;6.806;2023-04-28T02:05:53;66295.53;;;8.03;100.00
46614;BME280;32338;50.430;6.806;2023-04-28T02:08:19;66292.94;;;8.03;100.00
46614;BME280;32338;50.430;6.806;2023-04-28T02:10:46;66288.41;;;7.99;100.00
46614;BME280;32338;50.430;6.806;2023-04-28T02:13:12;66295.34;;;8.00;100.00
46614;BME280;32338;50.430;6.806;2023-04-28T02:15:41;66285.47;;;8.01;100.00
46614;BME280;32338;50.430;6.806;2023-04-28T02:18:07;66286.59;;;8.02;100.00
46614;BME280;32338;50.430;6.806;2023-04-28T02:20:34;66292.72;;;8.00;100.00
46614;BME280;32338;50.430;6.806;2023-04-28T02:23:01;66299.63;;;8.02;100.00
46614;BME280;32338;50.430;6.806;2023-04-28T02:25:27;66295.75;;;8.05;100.00
46614;BME280;32338;50.430;6.806;2023-04-28T02:27:54;66291.25;;;8.01;100.00
46614;BME280;32338;50.430;6.806;2023-04-28T02:30:21;66292.34;;;8.02;100.00
46614;BME280;32338;50.430;6.806;2023-04-28T02:32:49;66293.28;;;8.01;100.00
46614;BME280;32338;50.430;6.806;2023-04-28T02:35:16;66288.22;;;7.96;100.00
46614;BME280;32338;50.430;6.806;2023-04-28T02:37:42;66287.31;;;7.98;100.00
46614;BME280;32338;50.430;6.806;2023-04-28T02:40:10;66292.53;;;7.98;100.00
46614;BME280;32338;50.430;6.806;2023-04-28T02:42:37;66288.22;;;7.96;100.00
46614;BME280;32338;50.430;6.806;2023-04-28T02:45:05;66306.59;;;8.10;100.00
46614;BME280;32338;50.430;6.806;2023-04-28T02:47:32;66303.97;;;8.10;100.00
46614;BME280;32338;50.430;6.806;2023-04-28T02:50:00;66309.59;;;8.16;100.00
46614;BME280;32338;50.430;6.806;2023-04-28T02:52:27;66305.84;;;8.15;100.00
46614;BME280;32338;50.430;6.806;2023-04-28T02:54:53;66312.03;;;8.20;100.00
46614;BME280;32338;50.430;6.806;2023-04-28T02:57:22;66320.47;;;8.28;100.00
46614;BME280;32338;50.430;6.806;2023-04-28T02:59:48;66320.13;;;8.30;100.00
46614;BME280;32338;50.430;6.806;2023-04-28T03:02:15;66326.66;;;8.34;100.00
46614;BME280;32338;50.430;6.806;2023-04-28T03:04:41;66325.34;;;8.30;100.00
46614;BME280;32338;50.430;6.806;2023-04-28T03:07:09;66330.97;;;8.35;100.00
46614;BME280;32338;50.430;6.806;2023-04-28T03:09:36;66323.84;;;8.31;100.00
46614;BME280;32338;50.430;6.806;2023-04-28T03:12:03;66321.97;;;8.27;100.00
46614;BME280;32338;50.430;6.806;2023-04-28T03:14:29;66317.66;;;8.25;100.00
46614;BME280;32338;50.430;6.806;2023-04-28T03:16:56;66317.47;;;8.23;100.00
46614;BME280;32338;50.430;6.806;2023-04-28T03:19:23;66316.16;;;8.19;100.00
46614;BME280;32338;50.430;6.806;2023-04-28T03:21:50;66313.19;;;8.21;100.00
46614;BME280;32338;50.430;6.806;2023-04-28T03:24:18;66321.22;;;8.24;100.00
46614;BME280;32338;50.430;6.806;2023-04-28T03:26:45;66325.16;;;8.27;100.00
46614;BME280;32338;50.430;6.806;2023-04-28T03:29:11;66312.59;;;8.21;100.00
46614;BME280;32338;50.430;6.806;2023-04-28T03:31:38;66312.41;;;8.18;100.00
46614;BME280;32338;50.430;6.806;2023-04-28T03:34:04;66309.03;;;8.15;100.00
46614;BME280;32338;50.430;6.806;2023-04-28T03:36:31;66307.72;;;8.11;100.00
46614;BME280;32338;50.430;6.806;2023-04-28T03:38:58;66300.59;;;8.07;100.00
46614;BME280;32338;50.430;6.806;2023-04-28T03:41:26;66295.53;;;8.03;100.00
46614;BME280;32338;50.430;6.806;2023-04-28T03:43:52;66291.41;;;7.97;100.00
46614;BME280;32338;50.430;6.806;2023-04-28T03:46:21;66287.66;;;7.95;100.00
46614;BME280;32338;50.430;6.806;2023-04-28T03:48:48;66285.22;;;7.91;100.00
46614;BME280;32338;50.430;6.806;2023-04-28T03:51:14;66280.38;;;7.89;100.00
46614;BME280;32338;50.430;6.806;2023-04-28T03:53:41;66291.03;;;7.99;100.00
46614;BME280;32338;50.430;6.806;2023-04-28T03:56:07;66287.13;;;7.95;100.00
46614;BME280;32338;50.430;6.806;2023-04-28T03:58:35;66278.50;;;7.92;100.00
46614;BME280;32338;50.430;6.806;2023-04-28T04:01:02;66284.31;;;7.92;100.00
46614;BME280;32338;50.430;6.806;2023-04-28T04:03:29;66278.88;;;7.90;100.00
46614;BME280;32338;50.430;6.806;2023-04-28T04:05:56;66288.59;;;7.94;100.00
46614;BME280;32338;50.430;6.806;2023-04-28T04:08:22;66286.00;;;7.94;100.00
46614;BME280;32338;50.430;6.806;2023-04-28T04:10:49;66287.13;;;7.95;100.00
46614;BME280;32338;50.430;6.806;2023-04-28T04:13:16;66287.13;;;7.95;100.00
46614;BME280;32338;50.430;6.806;2023-04-28T04:15:44;66296.09;;;8.03;100.00
46614;BME280;32338;50.430;6.806;2023-04-28T04:18:11;66295.53;;;8.03;100.00
46614;BME280;32338;50.430;6.806;2023-04-28T04:20:39;66293.88;;;8.01;100.00
46614;BME280;32338;50.430;6.806;2023-04-28T04:23:05;66292.16;;;8.00;100.00
46614;BME280;32338;50.430;6.806;2023-04-28T04:25:32;66289.00;;;7.99;100.00
46614;BME280;32338;50.430;6.806;2023-04-28T04:27:59;66291.25;;;8.01;100.00
46614;BME280;32338;50.430;6.806;2023-04-28T04:30:26;66297.38;;;8.00;100.00
46614;BME280;32338;50.430;6.806;2023-04-28T04:32:53;66299.47;;;8.06;100.00
46614;BME280;32338;50.430;6.806;2023-04-28T04:35:20;66302.09;;;8.06;100.00
46614;BME280;32338;50.430;6.806;2023-04-28T04:37:47;66301.72;;;8.08;100.00
46614;BME280;32338;50.430;6.806;2023-04-28T04:40:13;66305.09;;;8.11;100.00
46614;BME280;32338;50.430;6.806;2023-04-28T04:42:40;66302.84;;;8.09;100.00
46614;BME280;32338;50.430;6.806;2023-04-28T04:45:07;66306.03;;;8.10;100.00
46614;BME280;32338;50.430;6.806;2023-04-28T04:47:34;66305.84;;;8.15;100.00
46614;BME280;32338;50.430;6.806;2023-04-28T04:50:02;66309.41;;;8.13;100.00
46614;BME280;32338;50.430;6.806;2023-04-28T04:52:29;66317.28;;;8.20;100.00
46614;BME280;32338;50.430;6.806;2023-04-28T04:54:56;66314.66;;;8.20;100.00
46614;BME280;32338;50.430;6.806;2023-04-28T04:57:22;66311.84;;;8.18;100.00
46614;BME280;32338;50.430;6.806;2023-04-28T04:59:49;66317.31;;;8.27;100.00
46614;BME280;32338;50.430;6.806;2023-04-28T05:02:15;66316.53;;;8.24;100.00
46614;BME280;32338;50.430;6.806;2023-04-28T05:04:42;66325.53;;;8.33;100.00
46614;BME280;32338;50.430;6.806;2023-04-28T05:07:10;66331.16;;;8.38;100.00
46614;BME280;32338;50.430;6.806;2023-04-28T05:09:37;66325.91;;;8.31;100.00
46614;BME280;32338;50.430;6.806;2023-04-28T05:12:04;66338.81;;;8.42;100.00
46614;BME280;32338;50.430;6.806;2023-04-28T05:14:30;66328.56;;;8.38;100.00
46614;BME280;32338;50.430;6.806;2023-04-28T05:16:58;66330.59;;;8.37;100.00
46614;BME280;32338;50.430;6.806;2023-04-28T05:19:25;66331.16;;;8.38;100.00
46614;BME280;32338;50.430;6.806;2023-04-28T05:21:51;66333.78;;;8.38;100.00
46614;BME280;32338;50.430;6.806;2023-04-28T05:24:21;66342.56;;;8.43;100.00
46614;BME280;32338;50.430;6.806;2023-04-28T05:26:48;66342.97;;;8.49;100.00
46614;BME280;32338;50.430;6.806;2023-04-28T05:29:15;66335.84;;;8.44;100.00
46614;BME280;32338;50.430;6.806;2023-04-28T05:31:42;66341.09;;;8.44;100.00
46614;BME280;32338;50.430;6.806;2023-04-28T05:34:09;66344.81;;;8.46;100.00
46614;BME280;32338;50.430;6.806;2023-04-28T05:36:35;66351.78;;;8.54;100.00
46614;BME280;32338;50.430;6.806;2023-04-28T05:39:02;66345.25;;;8.51;100.00
46614;BME280;32338;50.430;6.806;2023-04-28T05:41:30;66350.09;;;8.53;100.00
46614;BME280;32338;50.430;6.806;2023-04-28T05:43:56;66351.25;;;8.54;100.00
46614;BME280;32338;50.430;6.806;2023-04-28T05:46:23;66348.06;;;8.53;100.00
46614;BME280;32338;50.430;6.806;2023-04-28T05:48:50;66358.69;;;8.56;100.00
46614;BME280;32338;50.430;6.806;2023-04-28T05:51:16;66359.84;;;8.57;100.00
46614;BME280;32338;50.430;6.806;2023-04-28T05:53:43;66354.81;;;8.59;100.00
46614;BME280;32338;50.430;6.806;2023-04-28T05:56:13;66359.28;;;8.64;100.00
46614;BME280;32338;50.430;6.806;2023-04-28T05:58:41;66361.91;;;8.64;100.00
46614;BME280;32338;50.430;6.806;2023-04-28T06:01:08;66371.06;;;8.67;100.00
46614;BME280;32338;50.430;6.806;2023-04-28T06:03:35;66370.91;;;8.72;100.00
46614;BME280;32338;50.430;6.806;2023-04-28T06:06:02;66371.66;;;8.75;100.00
46614;BME280;32338;50.430;6.806;2023-04-28T06:08:29;66374.47;;;8.77;100.00
46614;BME280;32338;50.430;6.806;2023-04-28T06:10:55;66379.34;;;8.80;100.00
46614;BME280;32338;50.430;6.806;2023-04-28T06:13:22;66378.41;;;8.81;100.00
46614;BME280;32338;50.430;6.806;2023-04-28T06:15:50;66380.69;;;8.83;100.00
46614;BME280;32338;50.430;6.806;2023-04-28T06:18:17;66385.91;;;8.83;100.00
46614;BME280;32338;50.430;6.806;2023-04-28T06:20:44;66387.59;;;8.85;100.00
46614;BME280;32338;50.430;6.806;2023-04-28T06:23:10;66388.56;;;8.90;100.00
46614;BME280;32338;50.430;6.806;2023-04-28T06:25:37;66398.47;;;8.97;100.00
46614;BME280;32338;50.430;6.806;2023-04-28T06:28:04;66403.56;;;9.02;100.00
46614;BME280;32338;50.430;6.806;2023-04-28T06:30:33;66402.63;;;9.03;100.00
46614;BME280;32338;50.430;6.806;2023-04-28T06:33:01;66408.63;;;9.06;100.00
46614;BME280;32338;50.430;6.806;2023-04-28T06:35:29;66407.69;;;9.08;100.00
46614;BME280;32338;50.430;6.806;2023-04-28T06:37:56;66421.75;;;9.21;100.00
46614;BME280;32338;50.430;6.806;2023-04-28T06:40:22;66417.06;;;9.14;100.00
46614;BME280;32338;50.430;6.806;2023-04-28T06:42:49;66419.88;;;9.17;100.00
46614;BME280;32338;50.430;6.806;2023-04-28T06:45:16;66424.00;;;9.23;100.00
46614;BME280;32338;50.430;6.806;2023-04-28T06:47:43;66427.38;;;9.26;100.00
46614;BME280;32338;50.430;6.806;2023-04-28T06:50:11;66434.13;;;9.32;100.00
46614;BME280;32338;50.430;6.806;2023-04-28T06:52:38;66436.94;;;9.35;100.00
46614;BME280;32338;50.430;6.806;2023-04-28T06:55:06;66448.38;;;9.40;100.00
46614;BME280;32338;50.430;6.806;2023-04-28T06:57:33;66452.31;;;9.44;100.00
46614;BME280;32338;50.430;6.806;2023-04-28T07:00:00;66457.00;;;9.51;100.00
46614;BME280;32338;50.430;6.806;2023-04-28T07:02:28;66475.97;;;9.66;100.00
46614;BME280;32338;50.430;6.806;2023-04-28T07:04:55;66486.66;;;9.76;100.00
46614;BME280;32338;50.430;6.806;2023-04-28T07:07:22;66491.00;;;9.84;100.00
46614;BME280;32338;50.430;6.806;2023-04-28T07:09:49;66504.31;;;9.94;100.00
46614;BME280;32338;50.430;6.806;2023-04-28T07:12:17;66512.59;;;10.06;100.00
46614;BME280;32338;50.430;6.806;2023-04-28T07:14:44;66533.59;;;10.21;100.00
46614;BME280;32338;50.430;6.806;2023-04-28T07:17:10;66559.19;;;10.47;100.00
46614;BME280;32338;50.430;6.806;2023-04-28T07:19:37;66573.06;;;10.57;100.00
46614;BME280;32338;50.430;6.806;2023-04-28T07:22:04;66584.72;;;10.65;100.00
46614;BME280;32338;50.430;6.806;2023-04-28T07:24:32;66589.75;;;10.70;100.00
46614;BME280;32338;50.430;6.806;2023-04-28T07:26:59;66594.88;;;10.82;100.00
46614;BME280;32338;50.430;6.806;2023-04-28T07:29:25;66611.19;;;10.90;100.00
46614;BME280;32338;50.430;6.806;2023-04-28T07:31:57;66631.69;;;11.11;100.00
46614;BME280;32338;50.430;6.806;2023-04-28T07:34:24;66644.06;;;11.22;100.00
46614;BME280;32338;50.430;6.806;2023-04-28T07:36:51;66659.84;;;11.36;100.00
46614;BME280;32338;50.430;6.806;2023-04-28T07:39:18;66671.69;;;11.47;100.00
46614;BME280;32338;50.430;6.806;2023-04-28T07:41:46;66674.16;;;11.52;100.00
46614;BME280;32338;50.430;6.806;2023-04-28T07:44:13;66696.69;;;11.73;100.00
46614;BME280;32338;50.430;6.806;2023-04-28T07:46:39;66693.34;;;11.70;100.00
46614;BME280;32338;50.430;6.806;2023-04-28T07:49:06;66708.56;;;11.83;100.00
46614;BME280;32338;50.430;6.806;2023-04-28T07:51:34;66704.97;;;11.78;100.00
46614;BME280;32338;50.430;6.806;2023-04-28T07:54:00;66706.69;;;11.79;100.00
46614;BME280;32338;50.430;6.806;2023-04-28T07:56:27;66700.84;;;11.79;100.00
46614;BME280;32338;50.430;6.806;2023-04-28T07:58:55;66712.69;;;11.82;100.00
46614;BME280;32338;50.430;6.806;2023-04-28T08:01:21;66734.91;;;12.05;100.00
46614;BME280;32338;50.430;6.806;2023-04-28T08:03:48;66724.16;;;11.95;100.00
46614;BME280;32338;50.430;6.806;2023-04-28T08:06:15;66724.91;;;11.91;100.00
46614;BME280;32338;50.430;6.806;2023-04-28T08:08:41;66726.44;;;11.97;100.00
46614;BME280;32338;50.430;6.806;2023-04-28T08:11:08;66714.56;;;11.87;100.00
46614;BME280;32338;50.430;6.806;2023-04-28T08:13:34;66710.25;;;11.85;100.00
46614;BME280;32338;50.430;6.806;2023-04-28T08:16:03;66720.41;;;11.94;100.00
46614;BME280;32338;50.430;6.806;2023-04-28T08:18:29;66717.94;;;11.90;100.00
46614;BME280;32338;50.430;6.806;2023-04-28T08:20:57;66711.19;;;11.83;100.00
46614;BME280;32338;50.430;6.806;2023-04-28T08:23:23;66704.59;;;11.80;100.00
46614;BME280;32338;50.430;6.806;2023-04-28T08:25:52;66719.63;;;11.91;100.00
46614;BME280;32338;50.430;6.806;2023-04-28T08:28:19;66721.13;;;11.90;100.00
46614;BME280;32338;50.430;6.806;2023-04-28T08:30:46;66736.41;;;12.11;100.00
46614;BME280;32338;50.430;6.806;2023-04-28T08:33:14;66744.47;;;12.14;100.00
46614;BME280;32338;50.430;6.806;2023-04-28T08:35:41;66742.59;;;12.10;100.00
46614;BME280;32338;50.430;6.806;2023-04-28T08:38:07;66732.06;;;12.03;100.00
46614;BME280;32338;50.430;6.806;2023-04-28T08:40:38;66724.16;;;11.95;100.00
46614;BME280;32338;50.430;6.806;2023-04-28T08:43:04;66718.50;;;11.90;100.00
46614;BME280;32338;50.430;6.806;2023-04-28T08:45:39;66725.88;;;11.97;100.00
46614;BME280;32338;50.430;6.806;2023-04-28T08:48:17;66768.19;;;12.36;100.00
46614;BME280;32338;50.430;6.806;2023-04-28T08:50:49;66804.31;;;12.69;100.00
46614;BME280;32338;50.430;6.806;2023-04-28T08:53:21;66825.38;;;12.90;100.00
46614;BME280;32338;50.430;6.806;2023-04-28T08:55:51;66822.38;;;12.85;100.00
46614;BME280;32338;50.430;6.806;2023-04-28T08:58:20;66824.63;;;12.87;100.00
46614;BME280;32338;50.430;6.806;2023-04-28T09:00:47;66835.53;;;12.92;100.00
46614;BME280;32338;50.430;6.806;2023-04-28T09:03:14;66826.50;;;12.91;100.00
46614;BME280;32338;50.430;6.806;2023-04-28T09:05:42;66826.13;;;12.86;100.00
46614;BME280;32338;50.430;6.806;2023-04-28T09:08:09;66822.19;;;12.90;100.00
46614;BME280;32338;50.430;6.806;2023-04-28T09:10:36;66817.47;;;12.76;100.00
46614;BME280;32338;50.430;6.806;2023-04-28T09:13:03;66807.31;;;12.74;100.00
46614;BME280;32338;50.430;6.806;2023-04-28T09:15:31;66825.78;;;12.88;100.00
46614;BME280;32338;50.430;6.806;2023-04-28T09:17:59;66823.31;;;12.84;100.00
46614;BME280;32338;50.430;6.806;2023-04-28T09:20:27;66832.16;;;12.96;100.00
46614;BME280;32338;50.430;6.806;2023-04-28T09:22:56;66834.63;;;13.01;100.00
46614;BME280;32338;50.430;6.806;2023-04-28T09:25:37;66859.63;;;13.19;100.00
46614;BME280;32338;50.430;6.806;2023-04-28T09:28:18;66851.34;;;13.14;100.00
46614;BME280;32338;50.430;6.806;2023-04-28T09:30:45;66846.47;;;13.05;100.00
46614;BME280;32338;50.430;6.806;2023-04-28T09:33:12;66848.91;;;13.09;100.00
46614;BME280;32338;50.430;6.806;2023-04-28T09:35:40;66861.53;;;13.23;100.00
46614;BME280;32338;50.430;6.806;2023-04-28T09:38:09;66878.84;;;13.37;100.00
46614;BME280;32338;50.430;6.806;2023-04-28T09:40:48;66895.25;;;13.52;100.00
46614;BME280;32338;50.430;6.806;2023-04-28T09:43:22;66905.97;;;13.61;100.00
46614;BME280;32338;50.430;6.806;2023-04-28T09:45:49;66929.50;;;13.81;100.00
46614;BME280;32338;50.430;6.806;2023-04-28T09:48:15;66943.84;;;13.96;100.00
46614;BME280;32338;50.430;6.806;2023-04-28T09:50:43;66940.25;;;13.98;100.00
46614;BME280;32338;50.430;6.806;2023-04-28T09:53:12;66950.44;;;14.00;100.00
46614;BME280;32338;50.430;6.806;2023-04-28T09:55:42;66955.50;;;14.11;100.00
46614;BME280;32338;50.430;6.806;2023-04-28T09:58:10;66975.28;;;14.22;100.00
46614;BME280;32338;50.430;6.806;2023-04-28T10:00:39;66981.13;;;14.30;100.00
46614;BME280;32338;50.430;6.806;2023-04-28T10:03:06;66980.56;;;14.37;100.00
46614;BME280;32338;50.430;6.806;2023-04-28T10:05:34;66985.84;;;14.37;100.00
46614;BME280;32338;50.430;6.806;2023-04-28T10:08:03;66997.72;;;14.48;100.00
46614;BME280;32338;50.430;6.806;2023-04-28T10:10:31;67009.19;;;14.60;100.00
46614;BME280;32338;50.430;6.806;2023-04-28T10:12:59;67021.88;;;14.67;100.00
46614;BME280;32338;50.430;6.806;2023-04-28T10:15:27;67004.31;;;14.51;100.00
46614;BME280;32338;50.430;6.806;2023-04-28T10:17:54;67012.59;;;14.56;100.00
46614;BME280;32338;50.430;6.806;2023-04-28T10:20:21;67036.19;;;14.83;100.00
46614;BME280;32338;50.430;6.806;2023-04-28T10:22:58;67069.94;;;15.11;100.00
46614;BME280;32338;50.430;6.806;2023-04-28T10:25:36;67064.84;;;15.06;100.00
46614;BME280;32338;50.430;6.806;2023-04-28T10:28:05;67074.63;;;15.18;100.00
46614;BME280;32338;50.430;6.806;2023-04-28T10:30:32;67092.00;;;15.31;100.00
46614;BME280;32338;50.430;6.806;2023-04-28T10:33:21;67102.34;;;15.36;100.00
46614;BME280;32338;50.430;6.806;2023-04-28T10:35:48;67110.66;;;15.48;100.00
46614;BME280;32338;50.430;6.806;2023-04-28T10:38:16;67109.16;;;15.49;100.00
46614;BME280;32338;50.430;6.806;2023-04-28T10:40:44;67095.00;;;15.36;100.00
46614;BME280;32338;50.430;6.806;2023-04-28T10:43:12;67089.34;;;15.31;100.00
46614;BME280;32338;50.430;6.806;2023-04-28T10:46:06;67108.59;;;15.49;100.00
46614;BME280;32338;50.430;6.806;2023-04-28T10:48:52;67120.84;;;15.57;100.00
46614;BME280;32338;50.430;6.806;2023-04-28T10:51:37;67127.25;;;15.66;100.00
46614;BME280;32338;50.430;6.806;2023-04-28T10:54:17;67129.34;;;15.65;100.00
46614;BME280;32338;50.430;6.806;2023-04-28T10:57:16;67135.16;;;15.73;100.00
46614;BME280;32338;50.430;6.806;2023-04-28T10:59:43;67162.38;;;15.98;100.00
46614;BME280;32338;50.430;6.806;2023-04-28T11:02:35;67193.88;;;16.24;100.00
46614;BME280;32338;50.430;6.806;2023-04-28T11:05:10;67206.88;;;16.36;100.00
46614;BME280;32338;50.430;6.806;2023-04-28T11:07:37;67202.56;;;16.34;100.00
46614;BME280;32338;50.430;6.806;2023-04-28T11:10:04;67192.56;;;16.28;100.00
46614;BME280;32338;50.430;6.806;2023-04-28T11:12:32;67192.94;;;16.26;100.00
46614;BME280;32338;50.430;6.806;2023-04-28T11:15:10;67182.94;;;16.19;100.00
46614;BME280;32338;50.430;6.806;2023-04-28T11:17:39;67203.50;;;16.40;100.00
46614;BME280;32338;50.430;6.806;2023-04-28T11:20:11;67226.31;;;16.56;100.00
46614;BME280;32338;50.430;6.806;2023-04-28T11:22:38;67212.56;;;16.41;100.00
46614;BME280;32338;50.430;6.806;2023-04-28T11:25:06;67224.63;;;16.54;100.00
46614;BME280;32338;50.430;6.806;2023-04-28T11:27:34;67231.44;;;16.61;100.00
46614;BME280;32338;50.430;6.806;2023-04-28T11:30:02;67269.78;;;16.93;100.00
46614;BME280;32338;50.430;6.806;2023-04-28T11:32:31;67271.47;;;16.95;100.00
46614;BME280;32338;50.430;6.806;2023-04-28T11:34:58;67299.22;;;17.20;100.00
46614;BME280;32338;50.430;6.806;2023-04-28T11:37:24;67333.41;;;17.54;100.00
46614;BME280;32338;50.430;6.806;2023-04-28T11:39:51;67330.41;;;17.48;100.00
46614;BME280;32338;50.430;6.806;2023-04-28T11:42:18;67341.34;;;17.61;100.00
46614;BME280;32338;50.430;6.806;2023-04-28T11:44:50;67374.22;;;17.91;100.00
46614;BME280;32338;50.430;6.806;2023-04-28T11:47:27;67398.81;;;18.15;100.00
46614;BME280;32338;50.430;6.806;2023-04-28T11:49:54;67404.47;;;18.21;100.00
46614;BME280;32338;50.430;6.806;2023-04-28T11:52:21;67424.72;;;18.37;100.00
46614;BME280;32338;50.430;6.806;2023-04-28T11:54:52;67417.72;;;18.28;100.00
46614;BME280;32338;50.430;6.806;2023-04-28T11:57:20;67428.13;;;18.40;100.00
46614;BME280;32338;50.430;6.806;2023-04-28T11:59:47;67458.00;;;18.64;100.00
46614;BME280;32338;50.430;6.806;2023-04-28T12:02:23;67454.97;;;18.67;100.00
46614;BME280;32338;50.430;6.806;2023-04-28T12:04:52;67495.06;;;19.01;100.00
46614;BME280;32338;50.430;6.806;2023-04-28T12:07:19;67488.81;;;18.95;100.00
46614;BME280;32338;50.430;6.806;2023-04-28T12:09:47;67462.72;;;18.71;100.00
46614;BME280;32338;50.430;6.806;2023-04-28T12:12:15;67440.59;;;18.51;100.00
46614;BME280;32338;50.430;6.806;2023-04-28T12:14:54;67487.50;;;18.91;100.00
46614;BME280;32338;50.430;6.806;2023-04-28T12:17:26;67479.16;;;18.86;100.00
46614;BME280;32338;50.430;6.806;2023-04-28T12:19:53;67487.09;;;19.01;100.00
46614;BME280;32338;50.430;6.806;2023-04-28T12:22:21;67506.97;;;19.11;100.00
46614;BME280;32338;50.430;6.806;2023-04-28T12:25:02;67485.44;;;18.92;100.00
46614;BME280;32338;50.430;6.806;2023-04-28T12:27:29;67495.63;;;19.01;100.00
46614;BME280;32338;50.430;6.806;2023-04-28T12:29:56;67469.50;;;18.77;100.00
46614;BME280;32338;50.430;6.806;2023-04-28T12:32:38;67496.78;;;19.02;100.00
46614;BME280;32338;50.430;6.806;2023-04-28T12:35:05;67468.00;;;18.78;100.00
46614;BME280;32338;50.430;6.806;2023-04-28T12:37:32;67473.88;;;18.79;100.00
46614;BME280;32338;50.430;6.806;2023-04-28T12:39:59;67454.75;;;18.64;100.00
46614;BME280;32338;50.430;6.806;2023-04-28T12:42:28;67498.28;;;19.01;100.00
46614;BME280;32338;50.430;6.806;2023-04-28T12:44:55;67508.88;;;19.16;100.00
46614;BME280;32338;50.430;6.806;2023-04-28T12:47:22;67528.34;;;19.36;100.00
46614;BME280;32338;50.430;6.806;2023-04-28T12:49:50;67541.03;;;19.42;100.00
46614;BME280;32338;50.430;6.806;2023-04-28T12:52:18;67606.72;;;20.00;100.00
46614;BME280;32338;50.430;6.806;2023-04-28T12:54:44;67602.38;;;19.98;97.50
46614;BME280;32338;50.430;6.806;2023-04-28T12:57:12;67612.41;;;20.05;97.38
46614;BME280;32338;50.430;6.806;2023-04-28T12:59:38;67591.59;;;19.88;93.33